createdAt,value
2018-12-20T00:01:56.395Z,27.97
2018-12-20T00:04:25.400Z,26.40
2018-12-20T00:06:54.267Z,28.20
2018-12-20T00:09:24.039Z,27.80
2018-12-20T00:11:52.991Z,28.70
2018-12-20T00:14:21.938Z,29.90
2018-12-20T00:16:54.972Z,27.90
2018-12-20T00:19:23.859Z,26.40
2018-12-20T00:21:52.863Z,26.80
2018-12-20T00:24:22.015Z,26.10
2018-12-20T00:26:50.972Z,26.87
2018-12-20T00:29:19.890Z,29.07
2018-12-20T00:31:48.894Z,26.60
2018-12-20T00:34:17.868Z,28.60
2018-12-20T00:36:46.660Z,29.03
2018-12-20T00:39:15.521Z,29.40
2018-12-20T00:41:44.515Z,29.43
2018-12-20T00:44:13.371Z,28.53
2018-12-20T00:46:42.287Z,29.70
2018-12-20T00:49:11.169Z,29.57
2018-12-20T00:51:40.262Z,31.27
2018-12-20T00:54:09.155Z,28.73
2018-12-20T00:56:38.076Z,32.27
2018-12-20T00:59:06.923Z,31.47
2018-12-20T01:01:35.788Z,28.17
2018-12-20T01:04:04.742Z,30.80
2018-12-20T01:06:33.623Z,30.50
2018-12-20T01:09:03.072Z,30.60
2018-12-20T01:11:32.081Z,32.60
2018-12-20T01:14:01.024Z,29.10
2018-12-20T01:16:29.955Z,30.47
2018-12-20T01:18:58.876Z,31.87
2018-12-20T01:21:27.988Z,30.83
2018-12-20T01:23:56.992Z,31.70
2018-12-20T01:26:25.957Z,28.73
2018-12-20T01:28:55.095Z,32.10
2018-12-20T01:31:24.104Z,34.23
2018-12-20T01:33:53.145Z,31.70
2018-12-20T01:36:22.133Z,30.30
2018-12-20T01:38:51.016Z,31.87
2018-12-20T01:41:19.973Z,33.27
2018-12-20T01:43:48.868Z,32.43
2018-12-20T01:46:17.857Z,31.27
2018-12-20T01:48:46.745Z,32.40
2018-12-20T01:51:15.591Z,31.90
2018-12-20T01:53:44.805Z,32.87
2018-12-20T01:56:13.816Z,32.70
2018-12-20T01:58:42.722Z,35.00
2018-12-20T02:01:11.649Z,32.60
2018-12-20T02:03:40.474Z,29.83
2018-12-20T02:06:09.395Z,32.37
2018-12-20T02:08:38.322Z,33.37
2018-12-20T02:11:07.443Z,33.57
2018-12-20T02:13:36.366Z,33.97
2018-12-20T02:16:05.360Z,30.90
2018-12-20T02:18:34.325Z,29.10
2018-12-20T02:21:03.345Z,32.70
2018-12-20T02:23:32.272Z,33.77
2018-12-20T02:26:01.110Z,30.97
2018-12-20T02:28:29.981Z,32.37
2018-12-20T02:30:58.901Z,31.80
2018-12-20T02:33:29.201Z,32.38
2018-12-20T02:35:58.182Z,32.40
2018-12-20T02:38:27.127Z,31.20
2018-12-20T02:40:56.360Z,31.77
2018-12-20T02:43:25.347Z,31.03
2018-12-20T02:45:54.483Z,31.57
2018-12-20T02:48:23.431Z,32.77
2018-12-20T02:50:52.488Z,33.17
2018-12-20T02:53:21.618Z,34.43
2018-12-20T02:55:50.486Z,32.03
2018-12-20T02:58:19.634Z,33.10
2018-12-20T03:00:48.552Z,31.53
2018-12-20T03:03:17.381Z,34.30
2018-12-20T03:05:46.517Z,31.90
2018-12-20T03:08:15.405Z,32.07
2018-12-20T03:10:44.469Z,31.33
2018-12-20T03:13:13.598Z,32.57
2018-12-20T03:15:42.525Z,33.57
2018-12-20T03:18:11.556Z,32.83
2018-12-20T03:20:40.745Z,32.40
2018-12-20T03:23:09.706Z,32.20
2018-12-20T03:25:38.840Z,32.30
2018-12-20T03:28:08.024Z,33.70
2018-12-20T03:30:37.333Z,32.63
2018-12-20T03:33:10.308Z,35.27
2018-12-20T03:35:37.926Z,36.17
2018-12-20T03:38:06.864Z,33.02
2018-12-20T03:40:37.038Z,33.43
2018-12-20T03:43:06.086Z,32.60
2018-12-20T03:45:36.072Z,33.23
2018-12-20T03:48:05.021Z,31.67
2018-12-20T03:50:34.125Z,32.80
2018-12-20T03:53:03.119Z,34.50
2018-12-20T03:55:32.081Z,35.83
2018-12-20T03:58:01.046Z,33.67
2018-12-20T04:00:30.114Z,35.50
2018-12-20T04:02:59.224Z,34.77
2018-12-20T04:05:28.277Z,34.83
2018-12-20T04:07:57.499Z,33.63
2018-12-20T04:10:26.600Z,32.17
2018-12-20T04:12:55.515Z,34.37
2018-12-20T04:15:24.615Z,33.90
2018-12-20T04:17:53.737Z,32.67
2018-12-20T04:20:22.823Z,34.07
2018-12-20T04:22:51.945Z,34.40
2018-12-20T04:25:22.004Z,31.73
2018-12-20T04:27:50.945Z,34.93
2018-12-20T04:30:19.891Z,32.70
2018-12-20T04:32:48.947Z,33.37
2018-12-20T04:35:17.867Z,33.70
2018-12-20T04:37:46.721Z,34.43
2018-12-20T04:40:15.659Z,37.90
2018-12-20T04:42:44.866Z,32.50
2018-12-20T04:45:14.084Z,32.50
2018-12-20T04:47:43.053Z,33.53
2018-12-20T04:50:13.002Z,35.10
2018-12-20T04:52:41.938Z,32.70
2018-12-20T04:55:10.873Z,33.53
2018-12-20T04:57:40.086Z,32.07
2018-12-20T05:00:09.149Z,31.70
2018-12-20T05:02:38.134Z,32.57
2018-12-20T05:05:07.369Z,34.33
2018-12-20T05:07:36.477Z,33.53
2018-12-20T05:10:06.146Z,32.17
2018-12-20T05:12:35.021Z,34.63
2018-12-20T05:15:04.009Z,35.63
2018-12-20T05:17:33.081Z,37.57
2018-12-20T05:20:02.067Z,35.07
2018-12-20T05:22:31.075Z,35.50
2018-12-20T05:24:59.903Z,34.60
2018-12-20T05:27:28.980Z,37.60
2018-12-20T05:29:58.059Z,35.00
2018-12-20T05:32:27.216Z,38.70
2018-12-20T05:34:56.336Z,36.73
2018-12-20T05:37:25.235Z,36.73
2018-12-20T05:39:54.159Z,41.57
2018-12-20T05:42:23.122Z,41.97
2018-12-20T05:44:52.308Z,43.03
2018-12-20T05:47:21.544Z,37.80
2018-12-20T05:49:50.695Z,37.40
2018-12-20T05:52:19.971Z,38.23
2018-12-20T05:54:48.813Z,36.08
2018-12-20T05:57:17.755Z,37.43
2018-12-20T05:59:46.603Z,36.20
2018-12-20T06:02:15.504Z,39.57
2018-12-20T06:04:44.554Z,37.13
2018-12-20T06:07:13.474Z,36.27
2018-12-20T06:09:42.337Z,39.93
2018-12-20T06:12:11.279Z,38.07
2018-12-20T06:14:40.272Z,35.97
2018-12-20T06:17:09.312Z,36.00
2018-12-20T06:19:38.169Z,37.63
2018-12-20T06:22:07.095Z,43.20
2018-12-20T06:24:35.946Z,34.50
2018-12-20T06:27:04.895Z,35.30
2018-12-20T06:29:33.787Z,35.70
2018-12-20T06:32:02.634Z,33.80
2018-12-20T06:34:31.457Z,34.03
2018-12-20T06:37:00.351Z,34.83
2018-12-20T06:39:29.198Z,36.33
2018-12-20T06:41:58.031Z,33.10
2018-12-20T06:44:26.858Z,35.37
2018-12-20T06:46:55.739Z,32.77
2018-12-20T06:49:24.550Z,33.47
2018-12-20T06:51:53.389Z,31.07
2018-12-20T06:54:22.286Z,32.97
2018-12-20T06:56:51.168Z,33.80
2018-12-20T06:59:20.063Z,32.03
2018-12-20T07:01:49.030Z,31.50
2018-12-20T07:04:17.943Z,32.13
2018-12-20T07:06:46.956Z,31.37
2018-12-20T07:09:15.945Z,31.20
2018-12-20T07:11:44.779Z,34.00
2018-12-20T07:14:13.606Z,33.90
2018-12-20T07:16:42.471Z,32.67
2018-12-20T07:19:11.390Z,31.73
2018-12-20T07:21:40.283Z,30.60
2018-12-20T07:24:09.232Z,33.23
2018-12-20T07:26:38.172Z,29.80
2018-12-20T07:29:07.075Z,34.17
2018-12-20T07:31:36.056Z,33.10
2018-12-20T07:34:04.888Z,31.30
2018-12-20T07:36:33.803Z,31.70
2018-12-20T07:39:02.837Z,33.60
2018-12-20T07:41:31.783Z,34.50
2018-12-20T07:44:00.611Z,32.20
2018-12-20T07:46:37.551Z,32.10
2018-12-20T07:49:00.243Z,32.93
2018-12-20T07:51:29.247Z,32.50
2018-12-20T07:53:58.081Z,38.87
2018-12-20T07:56:26.983Z,36.37
2018-12-20T07:58:55.915Z,37.50
2018-12-20T08:01:24.946Z,33.87
2018-12-20T08:03:53.791Z,31.90
2018-12-20T08:06:22.734Z,32.33
2018-12-20T08:08:51.569Z,33.77
2018-12-20T08:11:20.434Z,36.50
2018-12-20T08:13:49.352Z,35.17
2018-12-20T08:16:18.179Z,32.40
2018-12-20T08:18:47.016Z,34.53
2018-12-20T08:21:15.931Z,34.07
2018-12-20T08:23:44.790Z,34.53
2018-12-20T08:26:13.686Z,34.37
2018-12-20T08:28:42.583Z,36.90
2018-12-20T08:31:11.427Z,34.70
2018-12-20T08:33:40.316Z,34.70
2018-12-20T08:36:09.366Z,32.03
2018-12-20T08:38:38.352Z,32.00
2018-12-20T08:41:09.042Z,30.80
2018-12-20T08:43:38.441Z,34.03
2018-12-20T08:46:07.288Z,34.00
2018-12-20T08:48:36.251Z,32.47
2018-12-20T08:51:05.303Z,31.93
2018-12-20T08:53:34.127Z,33.67
2018-12-20T08:56:03.005Z,32.77
2018-12-20T08:58:31.870Z,33.60
2018-12-20T09:01:00.771Z,34.57
2018-12-20T09:03:29.591Z,33.40
2018-12-20T09:05:58.579Z,34.00
2018-12-20T09:08:27.481Z,33.43
2018-12-20T09:10:56.321Z,33.73
2018-12-20T09:13:25.231Z,30.97
2018-12-20T09:15:54.010Z,30.87
2018-12-20T09:18:23.010Z,30.27
2018-12-20T09:20:51.822Z,34.77
2018-12-20T09:23:20.654Z,32.33
2018-12-20T09:25:49.521Z,34.00
2018-12-20T09:28:18.378Z,31.47
2018-12-20T09:30:47.212Z,33.37
2018-12-20T09:33:16.471Z,31.47
2018-12-20T09:35:45.418Z,31.50
2018-12-20T09:38:14.290Z,31.13
2018-12-20T09:40:43.259Z,31.87
2018-12-20T09:43:12.158Z,31.03
2018-12-20T09:45:41.017Z,28.17
2018-12-20T09:48:09.912Z,30.83
2018-12-20T09:50:38.776Z,28.80
2018-12-20T09:53:07.626Z,29.40
2018-12-20T09:55:36.496Z,28.80
2018-12-20T09:58:05.402Z,30.93
2018-12-20T10:00:34.236Z,30.67
2018-12-20T10:03:03.078Z,29.97
2018-12-20T10:05:31.971Z,27.70
2018-12-20T10:08:00.955Z,31.48
2018-12-20T10:10:29.850Z,28.60
2018-12-20T10:12:58.755Z,30.93
2018-12-20T10:15:27.594Z,28.37
2018-12-20T10:17:56.418Z,32.93
2018-12-20T10:20:25.411Z,33.93
2018-12-20T10:22:54.248Z,29.23
2018-12-20T10:25:23.155Z,28.13
2018-12-20T10:27:52.079Z,27.07
2018-12-20T10:30:20.986Z,25.43
2018-12-20T10:32:49.856Z,29.20
2018-12-20T10:35:18.755Z,29.03
2018-12-20T10:37:47.628Z,29.07
2018-12-20T10:40:16.514Z,28.80
2018-12-20T10:42:45.424Z,29.47
2018-12-20T10:45:14.454Z,27.20
2018-12-20T10:47:43.410Z,27.67
2018-12-20T10:50:13.154Z,27.87
2018-12-20T10:52:41.988Z,28.70
2018-12-20T10:55:10.906Z,28.07
2018-12-20T10:57:41.069Z,26.47
2018-12-20T11:00:10.019Z,29.20
2018-12-20T11:02:44.333Z,29.23
2018-12-20T11:05:18.443Z,26.90
2018-12-20T11:07:52.667Z,27.65
2018-12-20T11:10:25.887Z,27.40
2018-12-20T11:12:54.715Z,27.40
2018-12-20T11:15:23.558Z,25.50
2018-12-20T11:17:52.365Z,27.27
2018-12-20T11:20:21.206Z,27.00
2018-12-20T11:22:50.106Z,29.00
2018-12-20T11:25:18.987Z,29.60
2018-12-20T11:27:47.887Z,29.70
2018-12-20T11:30:16.903Z,31.97
2018-12-20T11:32:45.732Z,28.80
2018-12-20T11:35:14.625Z,31.70
2018-12-20T11:37:49.892Z,30.47
2018-12-20T11:40:19.054Z,30.90
2018-12-20T11:42:47.963Z,28.37
2018-12-20T11:45:16.818Z,28.30
2018-12-20T11:47:46.272Z,27.63
2018-12-20T11:50:15.255Z,29.20
2018-12-20T11:52:44.238Z,27.33
2018-12-20T11:55:14.140Z,29.93
2018-12-20T11:57:42.979Z,27.97
2018-12-20T12:00:12.127Z,28.87
2018-12-20T12:02:41.445Z,27.77
2018-12-20T12:05:10.366Z,30.37
2018-12-20T12:07:39.183Z,43.97
2018-12-20T12:10:08.044Z,34.37
2018-12-20T12:12:36.918Z,27.70
2018-12-20T12:15:06.715Z,26.50
2018-12-20T12:17:35.555Z,27.60
2018-12-20T12:20:05.219Z,29.37
2018-12-20T12:22:34.148Z,25.83
2018-12-20T12:25:03.027Z,27.50
2018-12-20T12:27:31.893Z,39.13
2018-12-20T12:30:00.797Z,33.37
2018-12-20T12:32:29.710Z,30.70
2018-12-20T12:34:58.591Z,33.50
2018-12-20T12:37:27.455Z,26.20
2018-12-20T12:39:56.351Z,23.50
2018-12-20T12:42:25.247Z,25.40
2018-12-20T12:44:55.246Z,26.17
2018-12-20T12:48:29.215Z,24.13
2018-12-20T12:50:58.066Z,24.40
2018-12-20T12:53:26.913Z,28.47
2018-12-20T12:55:55.769Z,25.93
2018-12-20T12:58:24.610Z,27.60
2018-12-20T13:00:53.446Z,27.33
2018-12-20T13:03:22.314Z,26.53
2018-12-20T13:05:51.130Z,26.20
2018-12-20T13:08:19.950Z,30.00
2018-12-20T13:10:48.904Z,25.00
2018-12-20T13:13:17.828Z,26.83
2018-12-20T13:15:46.801Z,26.30
2018-12-20T13:18:15.654Z,44.67
2018-12-20T13:20:44.501Z,24.43
2018-12-20T13:23:13.342Z,26.15
2018-12-20T13:25:42.331Z,25.40
2018-12-20T13:28:11.219Z,25.67
2018-12-20T13:30:40.063Z,26.47
2018-12-20T13:33:09.848Z,28.30
2018-12-20T13:35:38.695Z,27.20
2018-12-20T13:38:07.604Z,27.53
2018-12-20T13:40:36.465Z,27.03
2018-12-20T13:43:05.391Z,25.97
2018-12-20T13:45:34.367Z,27.50
2018-12-20T13:48:03.291Z,25.90
2018-12-20T13:50:32.146Z,26.93
2018-12-20T13:53:00.974Z,28.23
2018-12-20T13:55:29.918Z,28.43
2018-12-20T13:57:58.746Z,33.70
2018-12-20T14:00:27.602Z,27.40
2018-12-20T14:02:56.434Z,27.50
2018-12-20T14:05:25.258Z,27.00
2018-12-20T14:07:58.826Z,30.40
2018-12-20T14:10:25.052Z,49.67
2018-12-20T14:12:53.970Z,31.60
2018-12-20T14:15:22.896Z,31.10
2018-12-20T14:17:51.736Z,29.73
2018-12-20T14:20:20.583Z,28.30
2018-12-20T14:22:49.471Z,38.93
2018-12-20T14:25:18.313Z,26.70
2018-12-20T14:27:47.455Z,28.42
2018-12-20T14:30:16.389Z,26.40
2018-12-20T14:32:45.232Z,28.00
2018-12-20T14:35:14.144Z,27.80
2018-12-20T14:37:43.130Z,26.50
2018-12-20T14:40:12.076Z,29.73
2018-12-20T14:42:40.975Z,28.30
2018-12-20T14:45:09.975Z,27.53
2018-12-20T14:47:38.918Z,29.07
2018-12-20T14:50:09.009Z,28.73
2018-12-20T14:52:37.872Z,30.67
2018-12-20T14:55:08.315Z,29.83
2018-12-20T14:57:37.172Z,28.40
2018-12-20T15:00:08.164Z,32.83
2018-12-20T15:02:37.104Z,28.17
2018-12-20T15:05:06.647Z,29.23
2018-12-20T15:07:35.628Z,30.90
2018-12-20T15:10:06.250Z,34.80
2018-12-20T15:12:35.181Z,31.70
2018-12-20T15:15:04.137Z,27.80
2018-12-20T15:17:33.008Z,29.90
2018-12-20T15:20:01.939Z,29.43
2018-12-20T15:22:30.807Z,28.63
2018-12-20T15:24:59.687Z,31.60
2018-12-20T15:27:28.543Z,33.80
2018-12-20T15:29:57.373Z,33.00
2018-12-20T15:32:26.271Z,33.23
2018-12-20T15:34:55.241Z,35.17
2018-12-20T15:37:24.077Z,34.97
2018-12-20T15:39:52.903Z,33.67
2018-12-20T15:42:22.814Z,33.10
2018-12-20T15:44:51.643Z,32.20
2018-12-20T15:47:20.530Z,31.20
2018-12-20T15:49:50.105Z,33.33
2018-12-20T15:52:18.964Z,31.47
2018-12-20T15:54:47.956Z,32.50
2018-12-20T15:57:16.794Z,31.83
2018-12-20T15:59:45.670Z,34.10
2018-12-20T16:02:14.542Z,33.03
2018-12-20T16:04:43.434Z,34.50
2018-12-20T16:07:12.313Z,36.53
2018-12-20T16:09:42.342Z,33.77
2018-12-20T16:12:11.315Z,39.47
2018-12-20T16:14:40.739Z,33.87
2018-12-20T16:17:09.811Z,37.50
2018-12-20T16:19:38.684Z,36.80
2018-12-20T16:22:07.691Z,33.37
2018-12-20T16:24:36.559Z,30.63
2018-12-20T16:27:05.428Z,31.87
2018-12-20T16:29:34.273Z,31.57
2018-12-20T16:32:03.172Z,30.13
2018-12-20T16:34:32.123Z,30.10
2018-12-20T16:37:01.007Z,32.97
2018-12-20T16:39:29.888Z,33.63
2018-12-20T16:41:58.710Z,33.43
2018-12-20T16:44:27.550Z,36.77
2018-12-20T16:46:56.420Z,32.43
2018-12-20T16:49:25.324Z,31.83
2018-12-20T16:51:54.247Z,34.10
2018-12-20T16:54:23.380Z,34.43
2018-12-20T16:56:52.251Z,33.27
2018-12-20T16:59:21.074Z,30.83
2018-12-20T17:01:49.972Z,30.40
2018-12-20T17:04:18.863Z,29.47
2018-12-20T17:06:47.673Z,32.20
2018-12-20T17:09:16.631Z,27.03
2018-12-20T17:11:45.582Z,29.17
2018-12-20T17:14:14.488Z,30.57
2018-12-20T17:16:43.317Z,29.33
2018-12-20T17:19:12.203Z,29.50
2018-12-20T17:21:41.035Z,30.77
2018-12-20T17:24:09.923Z,29.20
2018-12-20T17:26:38.854Z,29.27
2018-12-20T17:29:07.687Z,30.03
2018-12-20T17:31:36.702Z,32.67
2018-12-20T17:34:05.612Z,37.97
2018-12-20T17:36:34.678Z,32.10
2018-12-20T17:39:05.297Z,30.67
2018-12-20T17:41:34.205Z,31.10
2018-12-20T17:44:03.786Z,30.30
2018-12-20T17:46:32.774Z,29.70
2018-12-20T17:49:01.719Z,31.17
2018-12-20T17:51:30.714Z,28.37
2018-12-20T17:53:59.634Z,29.40
2018-12-20T17:56:28.566Z,28.73
2018-12-20T17:58:57.500Z,31.00
2018-12-20T18:01:26.423Z,29.90
2018-12-20T18:03:55.264Z,31.80
2018-12-20T18:06:24.182Z,33.33
2018-12-20T18:08:53.036Z,32.80
2018-12-20T18:11:22.013Z,31.63
2018-12-20T18:13:50.943Z,31.80
2018-12-20T18:16:19.831Z,31.00
2018-12-20T18:18:48.731Z,36.20
2018-12-20T18:21:17.560Z,37.10
2018-12-20T18:23:47.509Z,36.20
2018-12-20T18:26:16.405Z,34.07
2018-12-20T18:28:47.373Z,36.53
2018-12-20T18:31:16.230Z,33.70
2018-12-20T18:33:45.187Z,34.57
2018-12-20T18:36:14.107Z,32.90
2018-12-20T18:38:43.912Z,33.63
2018-12-20T18:41:12.890Z,32.97
2018-12-20T18:43:41.871Z,35.80
2018-12-20T18:46:12.050Z,38.30
2018-12-20T18:48:41.062Z,36.03
2018-12-20T18:51:10.012Z,34.93
2018-12-20T18:53:38.882Z,34.67
2018-12-20T18:56:07.715Z,38.27
2018-12-20T18:58:36.592Z,36.93
2018-12-20T19:01:05.492Z,35.90
2018-12-20T19:03:34.390Z,36.10
2018-12-20T19:06:03.273Z,67.70
2018-12-20T19:08:32.218Z,49.80
2018-12-20T19:11:01.242Z,39.17
2018-12-20T19:13:30.209Z,37.40
2018-12-20T19:15:59.124Z,33.30
2018-12-20T19:18:27.965Z,34.23
2018-12-20T19:20:57.251Z,31.37
2018-12-20T19:23:26.147Z,33.77
2018-12-20T19:25:55.051Z,32.57
2018-12-20T19:28:23.965Z,31.67
2018-12-20T19:30:52.848Z,32.03
2018-12-20T19:33:21.774Z,37.43
2018-12-20T19:35:50.655Z,35.83
2018-12-20T19:38:20.562Z,38.47
2018-12-20T19:40:49.680Z,35.63
2018-12-20T19:43:18.806Z,32.57
2018-12-20T19:45:47.696Z,33.40
2018-12-20T19:48:16.525Z,37.07
2018-12-20T19:50:45.448Z,42.83
2018-12-20T19:53:14.392Z,38.67
2018-12-20T19:55:43.515Z,35.40
2018-12-20T19:58:12.410Z,64.60
2018-12-20T20:00:41.566Z,41.37
2018-12-20T20:03:10.521Z,38.20
2018-12-20T20:05:39.567Z,38.10
2018-12-20T20:08:08.463Z,36.00
2018-12-20T20:10:37.466Z,39.00
2018-12-20T20:13:06.390Z,33.27
2018-12-20T20:15:35.226Z,32.73
2018-12-20T20:18:04.381Z,38.27
2018-12-20T20:20:33.628Z,36.50
2018-12-20T20:23:02.594Z,36.03
2018-12-20T20:25:31.542Z,39.10
2018-12-20T20:28:00.494Z,38.57
2018-12-20T20:30:29.368Z,34.63
2018-12-20T20:32:58.309Z,36.90
2018-12-20T20:35:27.182Z,34.97
2018-12-20T20:37:56.080Z,39.03
2018-12-20T20:40:24.996Z,32.90
2018-12-20T20:42:53.886Z,33.03
2018-12-20T20:45:22.769Z,33.97
2018-12-20T20:47:51.759Z,32.30
2018-12-20T20:50:22.692Z,32.70
2018-12-20T20:52:51.465Z,32.93
2018-12-20T20:55:20.450Z,35.80
2018-12-20T20:57:49.351Z,32.53
2018-12-20T21:00:18.246Z,30.93
2018-12-20T21:02:47.249Z,31.43
2018-12-20T21:05:16.316Z,28.17
2018-12-20T21:07:45.235Z,31.90
2018-12-20T21:10:14.208Z,31.00
2018-12-20T21:12:44.003Z,27.27
2018-12-20T21:15:12.878Z,26.60
2018-12-20T21:17:41.713Z,26.43
2018-12-20T21:20:12.264Z,27.13
2018-12-20T21:22:41.229Z,27.27
2018-12-20T21:25:10.147Z,28.60
2018-12-20T21:27:38.999Z,28.40
2018-12-20T21:30:09.423Z,26.67
2018-12-20T21:32:38.323Z,26.07
2018-12-20T21:35:07.958Z,26.03
2018-12-20T21:37:36.819Z,21.77
2018-12-20T21:40:06.731Z,23.27
2018-12-20T21:42:35.716Z,23.93
2018-12-20T21:45:04.915Z,21.57
2018-12-20T21:47:33.886Z,24.00
2018-12-20T21:50:02.742Z,25.77
2018-12-20T21:52:31.607Z,25.23
2018-12-20T21:55:00.458Z,22.90
2018-12-20T21:57:29.310Z,25.43
2018-12-20T22:00:01.382Z,25.97
2018-12-20T22:02:29.122Z,44.47
2018-12-20T22:04:57.973Z,34.03
2018-12-20T22:07:26.913Z,26.60
2018-12-20T22:09:55.775Z,24.43
2018-12-20T22:12:24.619Z,29.17
2018-12-20T22:14:53.463Z,24.97
2018-12-20T22:17:22.363Z,21.67
2018-12-20T22:19:58.452Z,25.33
2018-12-20T22:22:22.030Z,26.97
2018-12-20T22:24:50.955Z,23.00
2018-12-20T22:27:19.799Z,23.20
2018-12-20T22:29:49.088Z,29.70
2018-12-20T22:32:17.926Z,25.23
2018-12-20T22:34:46.765Z,27.10
2018-12-20T22:37:15.624Z,28.83
2018-12-20T22:39:44.479Z,25.82
2018-12-20T22:42:13.388Z,29.07
2018-12-20T22:44:42.237Z,27.93
2018-12-20T22:47:11.154Z,24.80
2018-12-20T22:49:39.992Z,23.60
2018-12-20T22:52:08.860Z,24.83
2018-12-20T22:54:37.760Z,23.20
2018-12-20T22:57:06.608Z,24.10
2018-12-20T22:59:35.469Z,25.53
2018-12-20T23:02:04.711Z,25.97
2018-12-20T23:04:33.906Z,24.57
2018-12-20T23:07:02.751Z,23.00
2018-12-20T23:09:31.687Z,23.50
2018-12-20T23:12:00.519Z,18.50
2018-12-20T23:14:29.395Z,21.87
2018-12-20T23:16:58.227Z,22.17
2018-12-20T23:19:27.058Z,21.20
2018-12-20T23:21:55.967Z,17.97
2018-12-20T23:24:24.807Z,19.17
2018-12-20T23:26:53.834Z,16.67
2018-12-20T23:29:22.822Z,17.03
2018-12-20T23:31:51.711Z,16.90
2018-12-20T23:34:20.550Z,17.07
2018-12-20T23:36:49.394Z,18.10
2018-12-20T23:39:18.269Z,16.60
2018-12-20T23:41:47.212Z,19.53
2018-12-20T23:44:16.158Z,19.50
2018-12-20T23:46:45.182Z,18.53
2018-12-20T23:49:14.006Z,19.97
2018-12-20T23:51:45.405Z,19.93
2018-12-20T23:54:13.808Z,18.33
2018-12-20T23:56:42.804Z,20.53
2018-12-20T23:59:11.717Z,19.93
